createdAt,value
2023-01-20T05:32:57.226Z,-1.24
2023-01-20T05:37:58.849Z,-1.40
2023-01-20T05:43:03.567Z,-1.30
2023-01-20T05:48:05.984Z,-1.44
2023-01-20T05:53:08.744Z,-1.47
2023-01-20T05:58:12.175Z,-1.42
2023-01-20T06:03:13.857Z,-1.17
2023-01-20T06:08:15.559Z,-1.31
2023-01-20T06:13:17.325Z,-1.41
2023-01-20T06:18:19.861Z,-1.24
2023-01-20T06:23:21.459Z,-1.27
2023-01-20T06:28:23.295Z,-0.96
2023-01-20T06:33:24.947Z,-1.14
2023-01-20T06:38:31.324Z,-1.02
2023-01-20T06:43:34.447Z,-1.08
2023-01-20T06:48:36.431Z,-1.01
2023-01-20T06:53:39.081Z,-1.06
2023-01-20T06:58:41.297Z,-1.12
2023-01-20T07:03:43.793Z,-0.96
2023-01-20T07:08:46.213Z,-1.02
2023-01-20T07:13:47.810Z,-0.91
2023-01-20T07:18:51.042Z,-0.94
2023-01-20T07:23:52.718Z,-1.14
2023-01-20T07:28:54.636Z,-0.98
2023-01-20T07:33:57.821Z,-0.81
2023-01-20T07:38:59.528Z,-0.98
2023-01-20T07:44:01.142Z,-0.94
2023-01-20T07:49:03.827Z,-0.87
2023-01-20T07:54:05.841Z,-0.97
2023-01-20T07:59:07.976Z,-0.79
2023-01-20T08:04:09.742Z,-0.78
2023-01-20T08:09:15.146Z,-0.90
2023-01-20T08:14:21.949Z,-0.70
2023-01-20T08:19:23.691Z,-0.73
2023-01-20T08:24:30.779Z,-0.77
2023-01-20T08:29:33.726Z,-0.78
2023-01-20T08:34:35.484Z,-0.76
2023-01-20T08:39:37.815Z,-0.59
2023-01-20T08:44:39.533Z,-0.72
2023-01-20T08:49:41.566Z,-0.68
2023-01-20T08:54:43.392Z,-0.59
2023-01-20T08:59:46.883Z,-0.59
2023-01-20T09:04:50.150Z,-0.61
2023-01-20T09:09:51.911Z,-0.62
2023-01-20T09:14:55.883Z,-0.26
2023-01-20T09:19:57.651Z,-0.37
2023-01-20T09:25:00.429Z,-0.48
2023-01-20T09:30:03.007Z,-0.40
2023-01-20T09:35:05.444Z,-0.24
2023-01-20T09:40:35.120Z,-0.34
2023-01-20T09:46:26.208Z,-0.20
2023-01-20T09:52:01.403Z,-0.05
2023-01-20T09:57:07.398Z,-0.35
2023-01-20T10:02:18.187Z,-0.14
2023-01-20T10:07:35.106Z,-0.10
2023-01-20T10:12:51.442Z,0.05
2023-01-20T10:18:03.606Z,-0.09
2023-01-20T10:23:22.006Z,-0.05
2023-01-20T10:28:28.746Z,0.17
2023-01-20T10:33:36.487Z,0.13
2023-01-20T10:39:05.472Z,0.04
2023-01-20T10:44:12.855Z,0.03
2023-01-20T10:49:55.257Z,0.01
2023-01-20T10:55:16.258Z,0.21
2023-01-20T11:00:25.064Z,0.34
2023-01-20T11:05:30.172Z,0.44
2023-01-20T11:10:33.610Z,0.39
2023-01-20T11:15:43.405Z,0.32
2023-01-20T11:20:55.557Z,0.29
2023-01-20T11:25:59.707Z,0.37
2023-01-20T11:31:03.260Z,0.46
2023-01-20T11:36:18.932Z,0.65
2023-01-20T11:41:23.510Z,0.37
2023-01-20T11:46:31.669Z,0.50
2023-01-20T11:51:33.490Z,0.48
2023-01-20T11:56:41.621Z,0.47
2023-01-20T12:02:01.871Z,0.42
2023-01-20T12:07:11.050Z,0.35
2023-01-20T12:12:37.235Z,0.35
2023-01-20T12:17:46.165Z,0.66
2023-01-20T12:22:59.023Z,0.67
2023-01-20T12:28:32.998Z,0.61
2023-01-20T12:33:39.005Z,0.76
2023-01-20T12:39:12.655Z,0.91
2023-01-20T12:44:27.717Z,0.79
2023-01-20T12:50:01.095Z,0.79
2023-01-20T12:55:15.298Z,0.73
2023-01-20T13:00:35.862Z,0.63
2023-01-20T13:06:05.331Z,0.59
2023-01-20T13:11:28.539Z,0.67
2023-01-20T13:17:12.805Z,0.34
2023-01-20T13:22:23.227Z,0.30
2023-01-20T13:27:30.076Z,0.57
2023-01-20T13:32:36.264Z,0.60
2023-01-20T13:37:38.786Z,0.73
2023-01-20T13:42:40.551Z,0.38
2023-01-20T13:47:52.088Z,0.53
2023-01-20T13:52:53.780Z,0.50
2023-01-20T13:57:55.430Z,0.29
2023-01-20T14:02:57.216Z,0.17
2023-01-20T14:07:59.967Z,0.52
2023-01-20T14:13:01.752Z,0.32
2023-01-20T14:18:04.687Z,0.45
2023-01-20T14:23:30.031Z,0.46
2023-01-20T14:28:32.770Z,0.27
2023-01-20T14:33:34.559Z,0.21
2023-01-20T14:38:55.803Z,0.27
2023-01-20T14:43:59.241Z,0.32
2023-01-20T14:49:03.422Z,0.15
2023-01-20T14:54:42.899Z,0.25
2023-01-20T14:59:44.978Z,0.09
2023-01-20T15:04:46.808Z,0.25
2023-01-20T15:09:56.169Z,0.21
2023-01-20T15:15:07.088Z,0.10
2023-01-20T15:20:29.121Z,0.05
2023-01-20T15:25:30.796Z,0.13
2023-01-20T15:30:32.573Z,0.06
2023-01-20T15:35:34.274Z,0.12
2023-01-20T15:40:38.349Z,0.20
2023-01-20T15:45:40.204Z,0.19
2023-01-20T15:50:42.526Z,0.17
2023-01-20T15:55:50.111Z,0.26
2023-01-20T16:00:55.512Z,-0.09
2023-01-20T16:05:57.243Z,0.12
2023-01-20T16:10:58.916Z,0.08
2023-01-20T16:16:02.086Z,0.16
2023-01-20T16:21:04.853Z,-0.08
2023-01-20T16:26:15.320Z,-0.01
2023-01-20T16:31:17.282Z,-0.04
2023-01-20T16:36:20.890Z,0.03
2023-01-20T16:41:27.916Z,0.00
2023-01-20T16:46:32.786Z,0.04
2023-01-20T16:51:35.639Z,0.03
2023-01-20T16:56:37.422Z,0.06
2023-01-20T17:01:39.137Z,0.01
2023-01-20T17:06:42.462Z,0.06
2023-01-20T17:11:44.273Z,0.07
2023-01-20T17:16:45.971Z,0.15
2023-01-20T17:21:48.029Z,0.14
2023-01-20T17:26:51.816Z,0.15
2023-01-20T17:31:53.445Z,0.22
2023-01-20T17:36:57.194Z,0.10
2023-01-20T17:41:58.892Z,0.13
2023-01-20T17:47:00.490Z,0.03
2023-01-20T17:52:03.092Z,-0.03
2023-01-20T17:57:04.756Z,-0.06
2023-01-20T18:02:06.928Z,-0.04
2023-01-20T18:07:08.938Z,0.06
2023-01-20T18:12:10.603Z,-0.21
2023-01-20T18:17:12.294Z,-0.12
2023-01-20T18:22:15.243Z,-0.08
2023-01-20T18:27:18.834Z,-0.23
2023-01-20T18:32:20.546Z,-0.01
2023-01-20T18:37:22.484Z,-0.04
2023-01-20T18:42:24.115Z,-0.12
2023-01-20T18:47:25.972Z,-0.29
2023-01-20T18:52:27.697Z,0.03
2023-01-20T18:57:30.507Z,-0.05
2023-01-20T19:02:32.323Z,-0.11
2023-01-20T19:07:42.954Z,-0.15
2023-01-20T19:12:44.708Z,-0.12
2023-01-20T19:17:46.515Z,-0.12
2023-01-20T19:22:48.375Z,-0.04
2023-01-20T19:27:50.510Z,-0.12
2023-01-20T19:32:52.908Z,-0.14
2023-01-20T19:37:54.765Z,-0.20
2023-01-20T19:42:57.095Z,-0.35
2023-01-20T19:47:59.019Z,-0.19
2023-01-20T19:53:00.910Z,-0.39
2023-01-20T19:58:03.035Z,-0.19
2023-01-20T20:03:06.506Z,-0.07
2023-01-20T20:08:08.430Z,-0.25
2023-01-20T20:13:10.385Z,-0.08
2023-01-20T20:18:12.912Z,-0.09
2023-01-20T20:23:18.258Z,-0.12
2023-01-20T20:28:21.635Z,-0.19
2023-01-20T20:33:26.109Z,-0.15
2023-01-20T20:38:28.057Z,-0.07
2023-01-20T20:43:30.079Z,0.02
2023-01-20T20:48:33.756Z,-0.04
2023-01-20T20:53:36.697Z,-0.13
2023-01-20T20:58:48.692Z,-0.04
2023-01-20T21:04:02.567Z,-0.14
2023-01-20T21:09:04.331Z,-0.13
2023-01-20T21:14:07.324Z,-0.01
2023-01-20T21:19:09.195Z,-0.14
2023-01-20T21:24:13.947Z,-0.07
2023-01-20T21:29:15.554Z,-0.04
2023-01-20T21:34:17.210Z,-0.06
2023-01-20T21:39:20.614Z,-0.26
2023-01-20T21:44:28.560Z,-0.17
2023-01-20T21:49:49.352Z,-0.25
2023-01-20T21:54:51.250Z,-0.22
